Time;durP1;ratioP1;P1;durP2;ratioP2;P2;SDS_P1;SDS_P2;PMS_P1;PMS_P2;Temp;Humidity;BMP_temperature;BMP_pressure;BME280_temperature;BME280_humidity;BME280_pressure;Samples;Min_cycle;Max_cycle;Signal;HPM_P1;HPM_P2
2022/08/01 00:00:10;;;;;;;;;1.00;1.00;;;;;21.67;62.27;100986.03;5075371;27;45515;-75
2022/08/01 00:02:37;;;;;;;;;2.50;2.50;;;;;21.67;62.27;100980.69;5074725;27;47753;-73
2022/08/01 00:05:05;;;;;;;;;2.00;2.00;;;;;21.65;62.49;100978.16;5075192;27;45231;-74
2022/08/01 00:07:31;;;;;;;;;2.00;2.00;;;;;21.68;62.47;100996.63;5074951;27;45336;-75
2022/08/01 00:09:56;;;;;;;;;2.00;2.00;;;;;21.70;62.30;100989.34;5075619;27;45587;-74
2022/08/01 00:12:22;;;;;;;;;2.00;2.00;;;;;21.71;62.21;100988.34;5074899;27;45369;-73
2022/08/01 00:14:47;;;;;;;;;2.00;2.00;;;;;21.79;62.10;100989.56;5075028;27;45255;-73
2022/08/01 00:17:12;;;;;;;;;0.00;0.00;;;;;21.84;62.18;100987.34;5075127;27;45467;-73
2022/08/01 00:19:37;;;;;;;;;2.75;2.75;;;;;21.87;62.26;100993.31;5075119;27;45363;-72
2022/08/01 00:22:03;;;;;;;;;1.50;1.50;;;;;21.95;61.63;100986.47;5074647;27;46448;-71
2022/08/01 00:24:28;;;;;;;;;0.00;0.00;;;;;22.05;61.41;100982.06;5074954;27;45973;-73
2022/08/01 00:26:53;;;;;;;;;1.00;1.00;;;;;22.06;61.35;100981.09;5075094;27;45328;-72
2022/08/01 00:29:19;;;;;;;;;1.00;1.00;;;;;22.02;61.04;100980.47;5075043;27;45332;-71
2022/08/01 00:31:44;;;;;;;;;1.00;1.00;;;;;21.99;61.27;100970.03;5074386;27;46260;-71
2022/08/01 00:34:10;;;;;;;;;0.00;0.00;;;;;22.06;61.55;100974.88;5074554;27;45366;-72
2022/08/01 00:36:35;;;;;;;;;0.00;0.00;;;;;22.02;61.23;100964.41;5074932;27;45372;-72
2022/08/01 00:39:00;;;;;;;;;0.00;0.00;;;;;22.03;61.15;100962.59;5078102;27;45679;-72
2022/08/01 00:41:26;;;;;;;;;1.00;1.00;;;;;22.03;61.14;100966.09;5078196;27;46356;-73
2022/08/01 00:43:51;;;;;;;;;0.00;0.00;;;;;22.11;60.68;100968.16;5077962;27;45277;-76
2022/08/01 00:46:16;;;;;;;;;1.00;1.00;;;;;22.15;60.78;100974.97;5077829;27;45235;-72
2022/08/01 00:48:43;;;;;;;;;1.00;1.00;;;;;22.13;60.45;100955.50;5078068;27;45538;-73
2022/08/01 00:51:09;;;;;;;;;0.75;0.75;;;;;22.14;60.64;100959.00;5077657;27;45374;-73
2022/08/01 00:53:34;;;;;;;;;0.00;0.00;;;;;22.15;60.96;100964.25;5076138;28;45517;-74
2022/08/01 00:56:01;;;;;;;;;0.50;0.50;;;;;22.13;60.36;100960.84;5093863;27;45323;-74
2022/08/01 00:58:30;;;;;;;;;0.75;0.75;;;;;22.06;60.55;100948.09;5077976;27;45592;-74
2022/08/01 01:00:56;;;;;;;;;0.00;0.00;;;;;22.03;60.57;100954.56;5077283;27;45440;-72
2022/08/01 01:03:23;;;;;;;;;1.00;1.00;;;;;21.99;60.51;100961.97;5077411;27;45280;-74
2022/08/01 01:06:00;;;;;;;;;0.00;0.00;;;;;21.95;60.59;100960.53;5077640;27;45247;-73
2022/08/01 01:08:39;;;;;;;;;0.00;0.00;;;;;21.96;60.58;100958.72;5082060;27;45332;-71
2022/08/01 01:11:12;;;;;;;;;0.00;0.00;;;;;21.95;61.39;100968.56;5088172;27;46454;-74
2022/08/01 01:13:45;;;;;;;;;0.00;0.00;;;;;21.93;60.85;100958.97;5083703;27;45401;-72
2022/08/01 01:16:16;;;;;;;;;1.00;1.00;;;;;21.91;60.67;100956.41;5086796;27;45279;-72
2022/08/01 01:18:46;;;;;;;;;0.00;0.00;;;;;21.90;60.70;100954.72;5077937;27;45247;-72
2022/08/01 01:21:18;;;;;;;;;0.75;0.75;;;;;21.88;60.97;100960.22;5077481;27;45561;-72
2022/08/01 01:24:11;;;;;;;;;0.75;0.75;;;;;21.87;60.87;100953.16;5077326;27;45327;-76
2022/08/01 01:26:45;;;;;;;;;0.00;0.00;;;;;21.83;60.78;100946.34;5077553;28;45252;-74
2022/08/01 01:29:23;;;;;;;;;0.00;0.00;;;;;21.81;61.07;100956.34;5077223;27;45256;-74
2022/08/01 01:32:08;;;;;;;;;0.00;0.00;;;;;21.76;61.09;100955.00;5076822;27;46170;-74
2022/08/01 01:34:37;;;;;;;;;1.00;1.00;;;;;21.77;61.39;100959.38;5077250;28;45366;-74
2022/08/01 01:37:08;;;;;;;;;0.00;0.00;;;;;21.75;61.66;100956.84;5093417;27;45361;-74
2022/08/01 01:39:36;;;;;;;;;0.00;0.00;;;;;21.67;62.14;100953.91;5077677;27;45337;-75
2022/08/01 01:42:05;;;;;;;;;0.00;0.00;;;;;21.64;62.02;100955.03;5077423;27;45475;-75
2022/08/01 01:44:31;;;;;;;;;1.00;1.00;;;;;21.66;62.00;100955.75;5077225;27;45258;-72
2022/08/01 01:46:59;;;;;;;;;0.00;0.00;;;;;21.62;61.96;100940.03;5077309;27;45180;-75
2022/08/01 01:49:27;;;;;;;;;0.00;0.00;;;;;21.64;61.99;100952.34;5077342;27;45370;-74
2022/08/01 01:51:56;;;;;;;;;0.25;0.25;;;;;21.64;62.12;100948.81;5076858;27;45435;-74
2022/08/01 01:54:25;;;;;;;;;0.00;0.00;;;;;21.64;62.25;100941.66;5075511;27;45480;-72
2022/08/01 01:56:52;;;;;;;;;0.25;0.25;;;;;21.66;61.99;100942.38;5075778;28;45489;-72
2022/08/01 01:59:20;;;;;;;;;0.00;0.00;;;;;21.67;61.90;100941.38;5076982;27;45598;-71
2022/08/01 02:01:49;;;;;;;;;0.00;0.00;;;;;21.65;62.06;100938.00;5076671;27;46329;-73
2022/08/01 02:04:16;;;;;;;;;1.25;1.25;;;;;21.67;62.02;100943.19;5076669;27;45293;-73
2022/08/01 02:06:43;;;;;;;;;0.00;0.00;;;;;21.62;62.27;100932.84;5076627;27;45434;-75
2022/08/01 02:09:09;;;;;;;;;0.00;0.00;;;;;21.69;62.19;100942.13;5076934;27;45414;-72
2022/08/01 02:11:38;;;;;;;;;0.75;0.75;;;;;21.68;61.87;100935.06;5076947;27;46053;-71
2022/08/01 02:14:04;;;;;;;;;0.50;0.50;;;;;21.74;61.98;100942.59;5076446;27;45271;-72
2022/08/01 02:16:34;;;;;;;;;0.00;0.00;;;;;21.73;61.81;100937.34;5076619;27;45291;-75
2022/08/01 02:19:00;;;;;;;;;0.00;0.00;;;;;21.77;62.20;100941.50;5076896;27;45512;-72
2022/08/01 02:21:34;;;;;;;;;1.00;1.00;;;;;21.73;62.15;100935.53;5076562;27;45391;-74
2022/08/01 02:24:12;;;;;;;;;1.00;1.00;;;;;21.78;61.98;100940.53;5076558;27;45344;-76
2022/08/01 02:26:41;;;;;;;;;1.00;1.00;;;;;21.78;62.18;100937.84;5076346;27;45247;-71
2022/08/01 02:29:10;;;;;;;;;1.25;1.25;;;;;21.78;62.25;100943.19;5076633;27;45575;-71
2022/08/01 02:31:39;;;;;;;;;1.00;1.00;;;;;21.74;62.63;100939.91;5076941;27;45475;-73
2022/08/01 02:34:09;;;;;;;;;0.25;0.25;;;;;21.74;63.33;100941.75;5080978;27;45180;-72
2022/08/01 02:36:37;;;;;;;;;1.00;1.00;;;;;21.70;63.05;100946.50;5081964;27;45331;-71
2022/08/01 02:39:08;;;;;;;;;1.00;1.00;;;;;21.73;63.41;100946.25;5077351;27;45162;-72
2022/08/01 02:41:39;;;;;;;;;1.00;1.00;;;;;21.74;63.22;100942.59;5075353;28;48284;-72
2022/08/01 02:44:09;;;;;;;;;0.00;0.00;;;;;21.76;63.28;100946.97;5074811;27;45406;-72
2022/08/01 02:46:49;;;;;;;;;0.00;0.00;;;;;21.76;63.55;100944.28;5076754;27;45365;-73
2022/08/01 02:49:19;;;;;;;;;0.50;0.50;;;;;21.73;63.54;100948.06;5076403;27;45231;-75
2022/08/01 02:51:47;;;;;;;;;0.00;0.00;;;;;21.69;63.81;100939.44;5075812;27;47015;-74
2022/08/01 02:54:15;;;;;;;;;0.00;0.00;;;;;21.63;64.15;100934.59;5076242;28;45418;-75
2022/08/01 02:56:42;;;;;;;;;1.00;1.00;;;;;21.66;63.88;100944.19;5076399;27;45279;-75
2022/08/01 02:59:12;;;;;;;;;0.00;0.00;;;;;21.59;64.42;100941.13;5076664;27;45424;-72
2022/08/01 03:01:39;;;;;;;;;1.00;1.00;;;;;21.59;64.25;100941.13;5075454;27;46289;-73
2022/08/01 03:04:06;;;;;;;;;0.00;0.00;;;;;21.62;64.55;100940.03;5075986;27;45270;-73
2022/08/01 03:06:33;;;;;;;;;1.00;1.00;;;;;21.62;64.09;100932.00;5076096;27;45427;-74
2022/08/01 03:09:02;;;;;;;;;0.50;0.50;;;;;21.59;64.02;100933.94;5076360;28;45621;-72
2022/08/01 03:11:30;;;;;;;;;0.50;0.50;;;;;21.64;63.39;100935.44;5084872;27;46099;-72
2022/08/01 03:13:59;;;;;;;;;1.00;1.00;;;;;21.64;63.76;100936.28;5084371;27;45315;-71
2022/08/01 03:16:26;;;;;;;;;0.00;0.00;;;;;21.60;63.71;100924.94;5080965;27;45531;-72
2022/08/01 03:18:54;;;;;;;;;0.50;0.50;;;;;21.64;63.81;100938.97;5077090;27;45543;-72
2022/08/01 03:21:23;;;;;;;;;1.00;1.00;;;;;21.63;63.88;100942.63;5075537;27;46703;-73
2022/08/01 03:23:51;;;;;;;;;0.00;0.00;;;;;21.63;63.78;100941.72;5075416;27;45342;-72
2022/08/01 03:26:18;;;;;;;;;0.00;0.00;;;;;21.58;63.83;100934.09;5075524;27;45423;-73
2022/08/01 03:28:46;;;;;;;;;1.00;1.00;;;;;21.64;62.81;100922.03;5075728;27;45325;-72
2022/08/01 03:31:13;;;;;;;;;0.00;0.00;;;;;21.77;62.21;100938.81;5075813;28;45614;-73
2022/08/01 03:33:39;;;;;;;;;1.00;1.00;;;;;21.81;61.74;100950.13;5075939;27;45445;-71
2022/08/01 03:36:09;;;;;;;;;0.00;0.00;;;;;21.63;62.71;100922.97;5075983;27;45360;-74
2022/08/01 03:38:39;;;;;;;;;0.00;0.00;;;;;21.69;62.71;100936.75;5076139;27;45596;-73
2022/08/01 03:41:20;;;;;;;;;0.00;0.00;;;;;21.72;62.17;100944.53;5075420;27;46676;-73
2022/08/01 03:43:57;;;;;;;;;0.00;0.00;;;;;21.70;62.59;100943.81;5075247;27;45368;-76
2022/08/01 03:46:32;;;;;;;;;0.00;0.00;;;;;21.70;62.72;100929.56;5075599;28;45356;-77
2022/08/01 03:49:01;;;;;;;;;1.50;1.50;;;;;21.77;62.90;100946.84;5076190;27;45445;-76
2022/08/01 03:51:28;;;;;;;;;1.00;1.00;;;;;21.68;62.48;100931.53;5076458;27;46392;-75
2022/08/01 03:53:56;;;;;;;;;0.25;0.25;;;;;21.78;62.36;100948.56;5078126;27;45250;-76
2022/08/01 03:56:22;;;;;;;;;1.00;1.00;;;;;21.78;62.97;100945.00;5079492;27;45380;-77
2022/08/01 03:58:49;;;;;;;;;0.75;0.75;;;;;21.78;62.78;100942.34;5079289;27;45337;-77
2022/08/01 04:01:15;;;;;;;;;1.00;1.00;;;;;21.76;62.49;100944.28;5078465;27;46256;-76
2022/08/01 04:03:41;;;;;;;;;1.25;1.25;;;;;21.70;62.79;100934.91;5079341;27;45633;-77
2022/08/01 04:06:08;;;;;;;;;0.25;0.25;;;;;21.77;63.00;100949.53;5081022;27;45408;-77
2022/08/01 04:08:35;;;;;;;;;0.00;0.00;;;;;21.74;62.46;100939.91;5075270;27;45621;-77
2022/08/01 04:11:01;;;;;;;;;0.25;0.25;;;;;21.77;62.50;100937.97;5075483;28;45775;-77
2022/08/01 04:13:26;;;;;;;;;0.00;0.00;;;;;21.80;62.46;100940.38;5077853;27;45453;-77
2022/08/01 04:15:51;;;;;;;;;0.00;0.00;;;;;21.78;62.15;100928.94;5079410;27;45414;-78
2022/08/01 04:18:17;;;;;;;;;0.00;0.00;;;;;21.84;61.79;100941.84;5080085;27;45357;-76
2022/08/01 04:20:42;;;;;;;;;0.00;0.00;;;;;21.85;61.81;100932.81;5078605;27;50336;-73
2022/08/01 04:23:08;;;;;;;;;0.00;0.00;;;;;21.86;61.58;100938.06;5078527;27;45419;-75
2022/08/01 04:25:37;;;;;;;;;0.00;0.00;;;;;21.86;61.67;100932.72;5078629;27;45389;-75
2022/08/01 04:28:07;;;;;;;;;0.00;0.00;;;;;21.89;61.57;100931.59;5078690;27;45235;-76
2022/08/01 04:30:35;;;;;;;;;0.00;0.00;;;;;21.78;61.69;100904.84;5078307;27;45804;-76
2022/08/01 04:33:04;;;;;;;;;1.00;1.00;;;;;21.86;61.78;100907.75;5076689;27;45443;-76
2022/08/01 04:35:32;;;;;;;;;0.00;0.00;;;;;21.91;62.09;100918.91;5078238;27;45350;-75
2022/08/01 04:37:59;;;;;;;;;0.00;0.00;;;;;21.93;61.66;100929.53;5078376;27;45507;-76
2022/08/01 04:40:28;;;;;;;;;0.00;0.00;;;;;21.87;61.77;100918.34;5076728;28;47246;-76
2022/08/01 04:42:53;;;;;;;;;0.25;0.25;;;;;21.89;61.88;100920.88;5078264;27;45456;-77
2022/08/01 04:45:19;;;;;;;;;0.25;0.25;;;;;21.93;61.86;100919.63;5078106;27;45364;-77
2022/08/01 04:47:46;;;;;;;;;0.00;0.00;;;;;21.88;61.73;100916.50;5078641;27;45463;-78
2022/08/01 04:50:13;;;;;;;;;0.50;0.50;;;;;21.94;61.97;100923.19;5078350;27;46245;-76
2022/08/01 04:52:38;;;;;;;;;0.00;0.00;;;;;21.92;61.91;100922.47;5078351;27;45378;-78
2022/08/01 04:55:08;;;;;;;;;0.00;0.00;;;;;21.93;61.87;100925.00;5079228;27;45657;-76
2022/08/01 04:57:38;;;;;;;;;1.00;1.00;;;;;21.95;61.93;100930.25;5078840;27;45272;-77
2022/08/01 05:00:04;;;;;;;;;0.50;0.50;;;;;22.00;62.03;100926.19;5078589;27;45490;-77
2022/08/01 05:02:30;;;;;;;;;1.00;1.00;;;;;21.96;61.82;100924.75;5078305;27;45524;-76
2022/08/01 05:04:56;;;;;;;;;0.50;0.50;;;;;22.02;61.62;100940.31;5077734;28;45336;-75
2022/08/01 05:07:21;;;;;;;;;1.00;1.00;;;;;21.94;61.77;100929.38;5078731;27;45543;-77
2022/08/01 05:09:47;;;;;;;;;1.00;1.00;;;;;22.00;61.96;100942.25;5083922;27;45335;-77
2022/08/01 05:12:12;;;;;;;;;0.25;0.25;;;;;21.96;61.88;100946.16;5088590;27;45185;-77
2022/08/01 05:14:38;;;;;;;;;1.25;1.25;;;;;21.96;62.02;100948.84;5088408;27;45222;-75
2022/08/01 05:17:06;;;;;;;;;0.00;0.00;;;;;21.98;61.93;100956.78;5087663;28;45482;-78
2022/08/01 05:19:33;;;;;;;;;0.75;0.75;;;;;21.99;62.02;100959.31;5077537;27;48248;-78
2022/08/01 05:22:00;;;;;;;;;1.00;1.00;;;;;22.01;61.83;100954.66;5078597;27;45416;-78
2022/08/01 05:24:29;;;;;;;;;3.00;3.00;;;;;22.03;62.43;100955.41;5082025;27;45244;-78
2022/08/01 05:26:55;;;;;;;;;2.50;2.50;;;;;22.06;62.49;100954.31;5092265;28;45191;-79
2022/08/01 05:29:21;;;;;;;;;2.00;2.00;;;;;22.09;62.83;100955.84;5088223;28;47436;-78
2022/08/01 05:31:46;;;;;;;;;1.00;1.00;;;;;22.10;62.40;100953.06;5083724;27;45362;-77
2022/08/01 05:34:12;;;;;;;;;1.00;1.00;;;;;22.06;62.40;100948.09;5080539;27;45302;-78
2022/08/01 05:36:37;;;;;;;;;1.75;1.75;;;;;22.10;62.93;100952.19;5078917;27;45513;-77
2022/08/01 05:39:03;;;;;;;;;1.00;1.00;;;;;22.07;62.77;100942.59;5077500;27;46173;-77
2022/08/01 05:41:29;;;;;;;;;1.00;1.00;;;;;22.12;62.52;100951.13;5077324;27;45452;-75
2022/08/01 05:43:54;;;;;;;;;0.50;0.50;;;;;22.18;62.65;100949.72;5077176;28;45467;-78
2022/08/01 05:46:20;;;;;;;;;3.00;3.00;;;;;22.25;62.61;100958.94;5076984;27;45602;-76
2022/08/01 05:48:45;;;;;;;;;1.75;1.75;;;;;22.25;62.34;100953.59;5077247;27;45382;-76
2022/08/01 05:51:10;;;;;;;;;0.75;0.75;;;;;22.24;62.25;100953.75;5075762;27;45373;-76
2022/08/01 05:53:36;;;;;;;;;1.00;1.00;;;;;22.28;62.43;100961.41;5075675;28;45422;-75
2022/08/01 05:56:01;;;;;;;;;1.25;1.25;;;;;22.31;62.21;100961.16;5077088;27;45375;-76
2022/08/01 05:58:27;;;;;;;;;1.00;1.00;;;;;22.34;62.03;100960.03;5076989;27;45274;-76
2022/08/01 06:00:52;;;;;;;;;1.00;1.00;;;;;22.31;61.28;100963.81;5076634;27;45252;-75
2022/08/01 06:03:18;;;;;;;;;0.00;0.00;;;;;22.26;61.01;100965.19;5077351;27;45232;-76
2022/08/01 06:05:43;;;;;;;;;1.25;1.25;;;;;22.21;60.96;100967.38;5075974;27;45661;-77
2022/08/01 06:08:08;;;;;;;;;0.00;0.00;;;;;22.22;60.93;100964.56;5076685;27;45412;-76
2022/08/01 06:10:34;;;;;;;;;0.50;0.50;;;;;22.18;60.83;100957.78;5092412;27;45277;-76
2022/08/01 06:13:02;;;;;;;;;0.00;0.00;;;;;22.29;60.65;100970.28;5076906;27;45332;-75
2022/08/01 06:15:29;;;;;;;;;0.00;0.00;;;;;22.28;61.16;100971.25;5076044;27;45386;-81
2022/08/01 06:17:54;;;;;;;;;1.25;1.25;;;;;22.16;61.28;100959.72;5077751;28;45413;-73
2022/08/01 06:20:20;;;;;;;;;0.25;0.25;;;;;22.14;60.79;100972.41;5068614;27;45571;-80
2022/08/01 06:22:45;;;;;;;;;0.00;0.00;;;;;22.13;60.81;100976.06;5073258;27;45453;-78
2022/08/01 06:25:10;;;;;;;;;2.00;2.00;;;;;22.09;61.06;100963.91;5055021;28;45603;-79
2022/08/01 06:27:36;;;;;;;;;1.00;1.00;;;;;22.10;61.33;100976.31;5077573;27;45455;-77
2022/08/01 06:30:02;;;;;;;;;1.50;1.50;;;;;21.97;61.49;100958.59;5076921;27;45417;-77
2022/08/01 06:32:28;;;;;;;;;1.00;1.00;;;;;22.06;61.44;100983.75;5076320;27;45324;-75
2022/08/01 06:34:54;;;;;;;;;1.00;1.00;;;;;22.02;61.01;100980.47;5074354;27;45225;-77
2022/08/01 06:37:21;;;;;;;;;0.75;0.75;;;;;21.97;61.45;100966.63;5073876;28;46484;-75
2022/08/01 06:39:46;;;;;;;;;1.00;1.00;;;;;22.13;61.39;100974.25;5076285;27;45376;-77
2022/08/01 06:42:12;;;;;;;;;1.00;1.00;;;;;22.22;60.67;100971.78;5077568;27;46745;-78
2022/08/01 06:44:37;;;;;;;;;2.75;2.00;;;;;22.22;61.11;100977.97;5073387;27;45288;-79
2022/08/01 06:47:03;;;;;;;;;1.75;1.75;;;;;22.23;61.19;100971.63;5056005;28;45496;-80
2022/08/01 06:49:28;;;;;;;;;2.75;2.50;;;;;22.15;61.04;100948.16;5063592;28;45429;-81
2022/08/01 06:51:53;;;;;;;;;2.75;2.75;;;;;22.57;60.96;100976.88;5076494;27;45385;-78
2022/08/01 06:54:19;;;;;;;;;1.00;1.00;;;;;22.81;60.21;100983.78;5077336;27;45502;-79
2022/08/01 06:56:44;;;;;;;;;2.00;2.00;;;;;22.90;59.90;100974.94;5076291;27;46004;-78
2022/08/01 06:59:10;;;;;;;;;2.75;2.75;;;;;22.93;59.71;100960.44;5074090;27;45383;-78
2022/08/01 07:01:35;;;;;;;;;0.00;0.00;;;;;23.09;59.27;100975.19;5075682;28;45371;-75
2022/08/01 07:04:02;;;;;;;;;1.25;1.25;;;;;23.13;58.42;100969.41;5076556;28;45472;-75
2022/08/01 07:06:27;;;;;;;;;3.00;3.00;;;;;23.34;58.90;100985.50;5058644;28;45680;-77
2022/08/01 07:08:53;;;;;;;;;2.75;2.75;;;;;23.52;58.50;100987.53;5057919;28;45405;-81
2022/08/01 07:11:20;;;;;;;;;2.00;2.00;;;;;23.66;57.79;100980.94;5063727;28;45549;-79
2022/08/01 07:13:45;;;;;;;;;2.00;2.00;;;;;23.76;57.74;100976.44;5072477;27;45587;-76
2022/08/01 07:16:11;;;;;;;;;1.00;1.00;;;;;23.91;57.06;100976.91;5080120;27;45254;-77
2022/08/01 07:18:37;;;;;;;;;1.00;1.00;;;;;23.87;57.19;100961.19;5095937;27;45436;-80
2022/08/01 07:21:02;;;;;;;;;11.75;11.75;;;;;24.13;56.58;100977.66;5072834;28;45439;-79
2022/08/01 07:23:27;;;;;;;;;2.50;2.50;;;;;24.30;56.23;100962.63;5069512;27;45641;-82
2022/08/01 07:25:53;;;;;;;;;1.50;1.50;;;;;24.48;55.55;100953.88;5093575;27;46217;-80
2022/08/01 07:28:18;;;;;;;;;0.75;0.75;;;;;24.86;54.94;100986.22;5076962;27;45305;-82
2022/08/01 07:30:44;;;;;;;;;2.00;2.00;;;;;25.03;54.52;100979.22;5077110;27;45472;-82
2022/08/01 07:33:09;;;;;;;;;2.75;2.75;;;;;25.20;54.10;100980.31;5077174;27;45455;-76
2022/08/01 07:35:37;;;;;;;;;1.00;1.00;;;;;25.23;53.59;100982.69;5077305;27;45470;-81
2022/08/01 07:38:03;;;;;;;;;1.00;1.00;;;;;25.11;53.60;100979.34;5077844;27;45385;-82
2022/08/01 07:40:30;;;;;;;;;1.25;1.25;;;;;24.91;53.79;100967.78;5077946;27;45385;-80
2022/08/01 07:42:55;;;;;;;;;1.00;1.00;;;;;24.94;53.60;100986.34;5094421;27;45688;-82
2022/08/01 07:45:21;;;;;;;;;4.00;4.00;;;;;24.77;53.79;100974.50;5078317;27;46054;-83
2022/08/01 07:47:46;;;;;;;;;8.25;8.25;;;;;24.84;53.83;100990.88;5080744;28;45200;-80
2022/08/01 07:50:12;;;;;;;;;2.00;2.00;;;;;24.87;53.96;100996.84;5081751;27;45791;-79
2022/08/01 07:52:38;;;;;;;;;2.00;2.00;;;;;24.88;53.68;100997.66;5081008;27;45584;-78
2022/08/01 07:55:03;;;;;;;;;1.00;1.00;;;;;24.92;53.64;101004.50;5080904;27;46347;-80
2022/08/01 07:57:29;;;;;;;;;1.00;1.00;;;;;24.91;53.62;100997.38;5081765;27;45291;-81
2022/08/01 07:59:54;;;;;;;;;2.00;2.00;;;;;24.94;52.92;100999.81;5088922;28;45443;-79
2022/08/01 08:02:20;;;;;;;;;2.00;2.00;;;;;24.94;52.85;101006.03;5084739;27;44890;-80
2022/08/01 08:04:45;;;;;;;;;1.25;1.25;;;;;24.91;52.75;100995.56;5080673;27;45600;-82
2022/08/01 08:07:10;;;;;;;;;9.50;9.50;;;;;25.13;53.12;101004.25;5082115;27;45255;-82
2022/08/01 08:09:36;;;;;;;;;4.00;4.00;;;;;25.23;53.07;100990.78;5080887;27;45381;-83
2022/08/01 08:12:01;;;;;;;;;3.00;3.00;;;;;25.32;52.89;101000.66;5081580;27;45412;-81
2022/08/01 08:14:26;;;;;;;;;2.00;2.00;;;;;25.35;52.09;101002.19;5080189;27;45554;-82
2022/08/01 08:16:52;;;;;;;;;1.50;1.50;;;;;25.43;52.21;101015.75;5085739;27;45217;-81
2022/08/01 08:19:18;;;;;;;;;3.50;3.50;;;;;25.50;51.70;101007.97;5088636;27;45570;-80
2022/08/01 08:21:43;;;;;;;;;3.25;3.25;;;;;25.60;51.78;101002.53;5089775;27;44825;-77
2022/08/01 08:24:23;;;;;;;;;1.00;1.00;;;;;25.75;51.43;101006.44;5085815;27;45773;-77
2022/08/01 08:26:53;;;;;;;;;2.25;2.25;;;;;25.84;51.13;101003.81;5080481;27;45279;-76
2022/08/01 08:29:19;;;;;;;;;3.75;3.75;;;;;25.99;51.02;100996.06;5080050;27;45278;-78
2022/08/01 08:31:45;;;;;;;;;3.00;3.00;;;;;26.07;50.71;100991.59;5078210;27;45550;-81
2022/08/01 08:34:11;;;;;;;;;3.50;3.50;;;;;26.47;50.66;101002.06;5079758;27;46182;-80
2022/08/01 08:36:37;;;;;;;;;4.00;4.00;;;;;26.81;49.86;101002.16;5079275;27;45383;-79
2022/08/01 08:39:03;;;;;;;;;5.00;5.00;;;;;26.85;49.19;101002.72;5079641;27;45327;-80
2022/08/01 08:41:33;;;;;;;;;2.75;2.75;;;;;26.82;49.13;101008.41;5079953;27;45377;-80
2022/08/01 08:44:00;;;;;;;;;4.50;4.50;;;;;26.77;49.02;101006.19;5079310;27;45393;-81
2022/08/01 08:46:27;;;;;;;;;4.25;4.25;;;;;26.86;48.73;101006.25;5079026;27;45331;-79
2022/08/01 08:48:53;;;;;;;;;3.75;3.75;;;;;26.87;48.93;100999.84;5080054;27;45442;-82
2022/08/01 08:51:19;;;;;;;;;3.50;3.50;;;;;26.82;48.72;100978.72;5079268;27;45526;-80
2022/08/01 08:53:46;;;;;;;;;3.25;3.25;;;;;26.96;48.28;100982.72;5079578;27;45337;-79
2022/08/01 08:56:13;;;;;;;;;3.75;3.75;;;;;27.04;47.86;100992.72;5079378;27;45223;-80
2022/08/01 08:58:43;;;;;;;;;3.00;3.00;;;;;26.89;47.39;100976.25;5077344;27;45270;-80
2022/08/01 09:01:08;;;;;;;;;1.75;1.75;;;;;27.00;47.52;100992.19;5079740;27;45396;-81
2022/08/01 09:03:34;;;;;;;;;4.50;4.50;;;;;26.92;47.51;100974.09;5078085;27;46960;-81
2022/08/01 09:06:00;;;;;;;;;4.75;4.75;;;;;26.93;47.30;100978.50;5079375;28;45383;-79
2022/08/01 09:08:26;;;;;;;;;3.00;3.00;;;;;26.85;46.99;100974.88;5080052;27;45453;-78
2022/08/01 09:10:51;;;;;;;;;3.00;3.00;;;;;26.61;47.37;100960.19;5093615;27;44753;-79
2022/08/01 09:13:16;;;;;;;;;5.00;5.00;;;;;26.67;47.21;100981.16;5091023;27;45315;-79
2022/08/01 09:15:46;;;;;;;;;4.75;4.75;;;;;26.68;47.55;100994.50;5094438;27;45210;-79
2022/08/01 09:18:33;;;;;;;;;2.00;2.00;;;;;26.51;47.14;101000.78;5089061;28;45454;-80
2022/08/01 09:21:08;;;;;;;;;2.00;2.00;;;;;26.34;47.39;101005.19;5079500;27;45436;-78
2022/08/01 09:23:42;;;;;;;;;0.00;0.00;;;;;26.09;47.58;100994.16;5079420;27;46080;-81
2022/08/01 09:26:09;;;;;;;;;4.00;4.00;;;;;26.01;48.06;101000.28;5079621;27;45457;-80
2022/08/01 09:28:35;;;;;;;;;3.25;3.25;;;;;25.95;48.07;100990.97;5079025;27;45427;-81
2022/08/01 09:31:09;;;;;;;;;5.25;5.25;;;;;25.99;48.33;101007.69;5078983;27;45444;-81
2022/08/01 09:34:03;;;;;;;;;4.00;4.00;;;;;25.96;48.68;101005.28;5079808;27;46101;-82
2022/08/01 09:36:58;;;;;;;;;4.25;4.25;;;;;25.80;48.54;101003.25;5079199;27;45255;-81
2022/08/01 09:39:26;;;;;;;;;3.00;3.00;;;;;25.63;48.79;100994.16;5081525;27;45545;-79
2022/08/01 09:41:56;;;;;;;;;4.00;4.00;;;;;25.53;49.30;101007.66;5082572;27;45228;-79
2022/08/01 09:44:40;;;;;;;;;5.00;5.00;;;;;25.41;49.47;101009.66;5082584;27;45276;-79
2022/08/01 09:47:05;;;;;;;;;2.50;2.50;;;;;25.36;49.07;101001.19;5085590;27;45275;-78
2022/08/01 09:49:36;;;;;;;;;4.25;4.25;;;;;25.30;49.92;100991.00;5083654;28;45272;-81
2022/08/01 09:52:11;;;;;;;;;2.25;2.25;;;;;25.42;49.32;101005.97;5083582;28;45324;-79
2022/08/01 09:54:37;;;;;;;;;3.25;3.25;;;;;25.45;49.40;101000.34;5081061;27;45460;-79
2022/08/01 09:57:16;;;;;;;;;4.75;4.75;;;;;25.47;49.11;101010.97;5081466;28;45353;-80
2022/08/01 09:59:50;;;;;;;;;3.00;3.00;;;;;25.35;49.67;101012.97;5080797;27;45459;-81
2022/08/01 10:02:31;;;;;;;;;4.25;4.25;;;;;25.38;49.78;101016.22;5081518;27;45308;-79
2022/08/01 10:04:57;;;;;;;;;3.25;3.25;;;;;25.48;49.55;101018.03;5081987;27;46236;-79
2022/08/01 10:07:23;;;;;;;;;4.00;4.00;;;;;25.63;49.58;101005.78;5077775;27;45220;-80
2022/08/01 10:09:49;;;;;;;;;7.00;7.00;;;;;25.89;48.83;101001.50;5078022;27;45210;-78
2022/08/01 10:12:18;;;;;;;;;4.00;4.00;;;;;26.15;48.79;101000.78;5078921;27;45244;-79
2022/08/01 10:14:46;;;;;;;;;3.00;3.00;;;;;26.44;48.07;101014.03;5079406;27;46438;-81
2022/08/01 10:17:16;;;;;;;;;4.75;4.75;;;;;26.42;47.76;101007.09;5078745;27;45424;-82
2022/08/01 10:19:43;;;;;;;;;4.00;4.00;;;;;26.35;47.67;100996.91;5079069;27;45260;-79
2022/08/01 10:22:11;;;;;;;;;3.50;3.50;;;;;26.49;47.21;101000.91;5078907;27;45266;-80
2022/08/01 10:24:41;;;;;;;;;3.25;3.25;;;;;26.59;46.82;100991.88;5078211;27;45581;-79
2022/08/01 10:27:08;;;;;;;;;2.25;2.25;;;;;26.77;46.52;100992.69;5078022;27;45264;-81
2022/08/01 10:30:00;;;;;;;;;3.50;3.50;;;;;27.31;45.89;101005.19;5078556;27;45264;-79
2022/08/01 10:32:26;;;;;;;;;3.00;3.00;;;;;27.63;45.20;101000.13;5078875;27;46331;-80
2022/08/01 10:34:52;;;;;;;;;3.25;3.25;;;;;28.07;45.35;101016.09;5080733;27;45630;-80
2022/08/01 10:37:18;;;;;;;;;4.00;4.00;;;;;28.20;44.01;101007.53;5082513;27;44847;-80
2022/08/01 10:39:44;;;;;;;;;4.00;4.00;;;;;28.28;43.38;101021.06;5085673;27;45197;-81
2022/08/01 10:42:11;;;;;;;;;4.25;4.25;;;;;28.25;43.62;101012.41;5091320;28;45217;-81
2022/08/01 10:44:37;;;;;;;;;6.50;6.50;;;;;28.22;44.04;100999.22;5084891;27;46636;-81
2022/08/01 10:47:08;;;;;;;;;4.25;4.25;;;;;28.28;43.61;101017.50;5080315;27;45230;-81
2022/08/01 10:49:42;;;;;;;;;7.75;7.75;;;;;28.07;44.13;100999.88;5080075;28;45274;-81
2022/08/01 10:52:14;;;;;;;;;4.00;4.00;;;;;27.90;43.67;101008.97;5078507;27;45437;-82
2022/08/01 10:54:40;;;;;;;;;11.00;11.00;;;;;27.81;43.82;101017.06;5078300;27;45494;-83
2022/08/01 10:57:06;;;;;;;;;8.25;8.25;;;;;27.81;44.23;101006.25;5077836;27;45488;-81
2022/08/01 10:59:34;;;;;;;;;4.50;4.50;;;;;27.90;43.91;101008.97;5079149;27;45269;-80
2022/08/01 11:02:04;;;;;;;;;6.00;6.00;;;;;27.92;43.36;101005.06;5077692;27;45548;-80
2022/08/01 11:05:01;;;;;;;;;4.00;4.00;;;;;28.08;43.92;101006.97;5078344;27;45426;-82
2022/08/01 11:07:41;;;;;;;;;4.25;4.25;;;;;28.09;43.89;101008.66;5078377;27;45161;-81
2022/08/01 11:10:19;;;;;;;;;5.00;5.00;;;;;28.21;43.48;100997.53;5085488;27;45522;-81
2022/08/01 11:12:44;;;;;;;;;7.00;7.00;;;;;28.39;43.08;101005.50;5096510;27;44725;-80
2022/08/01 11:15:10;;;;;;;;;5.50;5.50;;;;;28.43;43.14;101004.97;5095669;27;46826;-80
2022/08/01 11:17:36;;;;;;;;;4.00;4.00;;;;;28.45;42.96;101021.06;5092857;28;44715;-82
2022/08/01 11:20:10;;;;;;;;;5.75;5.75;;;;;28.24;42.65;100972.88;5079524;27;45363;-81
2022/08/01 11:23:04;;;;;;;;;7.25;7.25;;;;;28.48;42.44;101009.03;5076588;27;45572;-81
2022/08/01 11:25:36;;;;;;;;;29.75;28.75;;;;;28.50;42.62;101012.41;5078307;28;47177;-82
2022/08/01 11:28:14;;;;;;;;;4.00;4.00;;;;;28.47;42.89;101005.50;5077664;27;45447;-83